sensor_id;sensor_type;location;lat;lon;timestamp;temperature;humidity
8332;DHT22;4203;48.144;14.118;2023-12-14T00:02:46;6.90;99.90
8332;DHT22;4203;48.144;14.118;2023-12-14T00:05:31;6.00;99.90
8332;DHT22;4203;48.144;14.118;2023-12-14T00:08:02;5.80;99.90
8332;DHT22;4203;48.144;14.118;2023-12-14T00:11:03;6.10;99.90
8332;DHT22;4203;48.144;14.118;2023-12-14T00:13:44;5.90;99.90
8332;DHT22;4203;48.144;14.118;2023-12-14T00:19:26;6.20;99.90
8332;DHT22;4203;48.144;14.118;2023-12-14T00:22:21;5.90;99.90
8332;DHT22;4203;48.144;14.118;2023-12-14T00:25:10;5.90;99.90
8332;DHT22;4203;48.144;14.118;2023-12-14T00:27:45;5.80;99.90
8332;DHT22;4203;48.144;14.118;2023-12-14T00:30:19;5.90;99.90
8332;DHT22;4203;48.144;14.118;2023-12-14T00:32:47;5.80;99.90
8332;DHT22;4203;48.144;14.118;2023-12-14T00:35:14;5.80;99.90
8332;DHT22;4203;48.144;14.118;2023-12-14T00:37:44;5.80;99.90
8332;DHT22;4203;48.144;14.118;2023-12-14T00:40:17;5.70;99.90
8332;DHT22;4203;48.144;14.118;2023-12-14T00:42:44;5.70;99.90
8332;DHT22;4203;48.144;14.118;2023-12-14T00:45:11;5.70;99.90
8332;DHT22;4203;48.144;14.118;2023-12-14T00:47:40;5.70;99.90
8332;DHT22;4203;48.144;14.118;2023-12-14T00:50:08;5.60;99.90
8332;DHT22;4203;48.144;14.118;2023-12-14T00:52:35;5.60;99.90
8332;DHT22;4203;48.144;14.118;2023-12-14T00:55:03;5.60;99.90
8332;DHT22;4203;48.144;14.118;2023-12-14T00:57:29;5.60;99.90
8332;DHT22;4203;48.144;14.118;2023-12-14T00:59:57;5.60;99.90
8332;DHT22;4203;48.144;14.118;2023-12-14T01:05:47;5.50;99.90
8332;DHT22;4203;48.144;14.118;2023-12-14T01:08:14;5.50;99.90
8332;DHT22;4203;48.144;14.118;2023-12-14T01:10:42;5.50;99.90
8332;DHT22;4203;48.144;14.118;2023-12-14T01:16:31;5.50;99.90
8332;DHT22;4203;48.144;14.118;2023-12-14T01:18:58;5.50;99.90
8332;DHT22;4203;48.144;14.118;2023-12-14T01:21:27;5.50;99.90
8332;DHT22;4203;48.144;14.118;2023-12-14T01:23:54;5.50;99.90
8332;DHT22;4203;48.144;14.118;2023-12-14T01:26:21;5.40;99.90
8332;DHT22;4203;48.144;14.118;2023-12-14T01:28:48;5.40;99.90
8332;DHT22;4203;48.144;14.118;2023-12-14T01:34:38;5.50;99.90
8332;DHT22;4203;48.144;14.118;2023-12-14T01:37:06;5.40;99.90
8332;DHT22;4203;48.144;14.118;2023-12-14T01:39:34;5.40;99.90
8332;DHT22;4203;48.144;14.118;2023-12-14T01:45:23;5.40;99.90
8332;DHT22;4203;48.144;14.118;2023-12-14T01:47:50;5.40;99.90
8332;DHT22;4203;48.144;14.118;2023-12-14T01:50:18;5.40;99.90
8332;DHT22;4203;48.144;14.118;2023-12-14T01:56:09;5.40;99.90
8332;DHT22;4203;48.144;14.118;2023-12-14T01:58:37;5.40;99.90
8332;DHT22;4203;48.144;14.118;2023-12-14T02:04:26;5.40;99.90
8332;DHT22;4203;48.144;14.118;2023-12-14T02:06:53;5.40;99.90
8332;DHT22;4203;48.144;14.118;2023-12-14T02:09:21;5.40;99.90
8332;DHT22;4203;48.144;14.118;2023-12-14T02:15:36;5.40;99.90
8332;DHT22;4203;48.144;14.118;2023-12-14T02:18:04;5.20;99.90
8332;DHT22;4203;48.144;14.118;2023-12-14T02:20:32;5.40;99.90
8332;DHT22;4203;48.144;14.118;2023-12-14T02:26:22;5.40;99.90
8332;DHT22;4203;48.144;14.118;2023-12-14T02:28:49;5.40;99.90
8332;DHT22;4203;48.144;14.118;2023-12-14T02:31:18;5.30;99.90
8332;DHT22;4203;48.144;14.118;2023-12-14T02:33:45;5.30;99.90
8332;DHT22;4203;48.144;14.118;2023-12-14T02:36:12;5.30;99.90
8332;DHT22;4203;48.144;14.118;2023-12-14T02:38:40;5.30;99.90
8332;DHT22;4203;48.144;14.118;2023-12-14T02:41:07;5.40;99.90
8332;DHT22;4203;48.144;14.118;2023-12-14T02:43:36;5.30;99.90
8332;DHT22;4203;48.144;14.118;2023-12-14T02:46:03;5.40;99.90
8332;DHT22;4203;48.144;14.118;2023-12-14T02:48:31;5.40;99.90
8332;DHT22;4203;48.144;14.118;2023-12-14T02:54:19;5.40;99.90
8332;DHT22;4203;48.144;14.118;2023-12-14T02:56:47;5.40;99.90
8332;DHT22;4203;48.144;14.118;2023-12-14T02:59:15;5.40;99.90
8332;DHT22;4203;48.144;14.118;2023-12-14T03:05:05;5.30;99.90
8332;DHT22;4203;48.144;14.118;2023-12-14T03:07:32;5.30;99.90
8332;DHT22;4203;48.144;14.118;2023-12-14T03:09:59;5.30;99.90
8332;DHT22;4203;48.144;14.118;2023-12-14T03:15:50;5.30;99.90
8332;DHT22;4203;48.144;14.118;2023-12-14T03:18:17;5.30;99.90
8332;DHT22;4203;48.144;14.118;2023-12-14T03:20:45;5.30;99.90
8332;DHT22;4203;48.144;14.118;2023-12-14T03:23:14;5.30;99.90
8332;DHT22;4203;48.144;14.118;2023-12-14T03:25:41;5.20;99.90
8332;DHT22;4203;48.144;14.118;2023-12-14T03:28:08;5.30;99.90
8332;DHT22;4203;48.144;14.118;2023-12-14T03:30:35;5.20;99.90
8332;DHT22;4203;48.144;14.118;2023-12-14T03:36:26;5.20;99.90
8332;DHT22;4203;48.144;14.118;2023-12-14T03:38:53;5.20;99.90
8332;DHT22;4203;48.144;14.118;2023-12-14T03:41:20;5.20;99.90
8332;DHT22;4203;48.144;14.118;2023-12-14T03:43:48;5.20;99.90
8332;DHT22;4203;48.144;14.118;2023-12-14T03:46:15;5.20;99.90
8332;DHT22;4203;48.144;14.118;2023-12-14T03:48:42;5.30;99.90
8332;DHT22;4203;48.144;14.118;2023-12-14T03:54:33;5.20;99.90
8332;DHT22;4203;48.144;14.118;2023-12-14T03:57:00;5.20;99.90
8332;DHT22;4203;48.144;14.118;2023-12-14T03:59:28;5.30;99.90
8332;DHT22;4203;48.144;14.118;2023-12-14T04:05:17;5.20;99.90
8332;DHT22;4203;48.144;14.118;2023-12-14T04:07:44;5.20;99.90
8332;DHT22;4203;48.144;14.118;2023-12-14T04:10:13;5.30;99.90
8332;DHT22;4203;48.144;14.118;2023-12-14T04:16:03;5.20;99.90
8332;DHT22;4203;48.144;14.118;2023-12-14T04:18:30;5.20;99.90
8332;DHT22;4203;48.144;14.118;2023-12-14T04:20:58;5.30;99.90
8332;DHT22;4203;48.144;14.118;2023-12-14T04:23:25;5.20;99.90
8332;DHT22;4203;48.144;14.118;2023-12-14T04:25:54;5.20;99.90
8332;DHT22;4203;48.144;14.118;2023-12-14T04:28:21;5.30;99.90
8332;DHT22;4203;48.144;14.118;2023-12-14T04:30:49;5.20;99.90
8332;DHT22;4203;48.144;14.118;2023-12-14T04:33:16;5.30;99.90
8332;DHT22;4203;48.144;14.118;2023-12-14T04:35:43;5.20;99.90
8332;DHT22;4203;48.144;14.118;2023-12-14T04:38:11;5.30;99.90
8332;DHT22;4203;48.144;14.118;2023-12-14T04:40:40;5.30;99.90
8332;DHT22;4203;48.144;14.118;2023-12-14T04:46:31;5.30;99.90
8332;DHT22;4203;48.144;14.118;2023-12-14T04:48:59;5.20;99.90
8332;DHT22;4203;48.144;14.118;2023-12-14T04:51:26;5.30;99.90
8332;DHT22;4203;48.144;14.118;2023-12-14T04:53:53;5.30;99.90
8332;DHT22;4203;48.144;14.118;2023-12-14T04:56:20;5.30;99.90
8332;DHT22;4203;48.144;14.118;2023-12-14T04:58:48;5.30;99.90
8332;DHT22;4203;48.144;14.118;2023-12-14T05:04:39;5.40;99.90
8332;DHT22;4203;48.144;14.118;2023-12-14T05:07:07;5.30;99.90
8332;DHT22;4203;48.144;14.118;2023-12-14T05:09:35;5.40;99.90
8332;DHT22;4203;48.144;14.118;2023-12-14T05:15:23;5.30;99.90
8332;DHT22;4203;48.144;14.118;2023-12-14T05:17:51;5.30;99.90
8332;DHT22;4203;48.144;14.118;2023-12-14T05:20:19;5.30;99.90
8332;DHT22;4203;48.144;14.118;2023-12-14T05:26:09;5.30;99.90
8332;DHT22;4203;48.144;14.118;2023-12-14T05:28:36;5.40;99.90
8332;DHT22;4203;48.144;14.118;2023-12-14T05:31:04;5.30;99.90
8332;DHT22;4203;48.144;14.118;2023-12-14T05:33:31;5.30;99.90
8332;DHT22;4203;48.144;14.118;2023-12-14T05:36:01;5.40;99.90
8332;DHT22;4203;48.144;14.118;2023-12-14T05:38:28;5.30;99.90
8332;DHT22;4203;48.144;14.118;2023-12-14T05:40:55;5.40;99.90
8332;DHT22;4203;48.144;14.118;2023-12-14T05:43:23;5.40;99.90
8332;DHT22;4203;48.144;14.118;2023-12-14T05:45:50;5.40;99.90
8332;DHT22;4203;48.144;14.118;2023-12-14T05:48:17;5.40;99.90
8332;DHT22;4203;48.144;14.118;2023-12-14T05:50:44;5.40;99.90
8332;DHT22;4203;48.144;14.118;2023-12-14T05:53:13;5.40;99.90
8332;DHT22;4203;48.144;14.118;2023-12-14T06:06:05;5.40;99.90
8332;DHT22;4203;48.144;14.118;2023-12-14T06:25:49;5.40;99.90
8332;DHT22;4203;48.144;14.118;2023-12-14T06:28:25;5.40;99.90
8332;DHT22;4203;48.144;14.118;2023-12-14T06:37:06;5.40;99.90
8332;DHT22;4203;48.144;14.118;2023-12-14T06:39:52;5.40;99.90
8332;DHT22;4203;48.144;14.118;2023-12-14T06:56:20;5.40;99.90
8332;DHT22;4203;48.144;14.118;2023-12-14T07:02:29;5.40;99.90
8332;DHT22;4203;48.144;14.118;2023-12-14T07:05:06;5.40;99.90
8332;DHT22;4203;48.144;14.118;2023-12-14T07:08:01;5.40;99.90
8332;DHT22;4203;48.144;14.118;2023-12-14T07:14:43;5.30;99.90
8332;DHT22;4203;48.144;14.118;2023-12-14T07:17:12;5.30;99.90
8332;DHT22;4203;48.144;14.118;2023-12-14T07:19:39;5.30;99.90
8332;DHT22;4203;48.144;14.118;2023-12-14T07:22:09;5.40;99.90
8332;DHT22;4203;48.144;14.118;2023-12-14T07:24:39;5.40;99.90
8332;DHT22;4203;48.144;14.118;2023-12-14T07:27:06;5.30;99.90
8332;DHT22;4203;48.144;14.118;2023-12-14T07:29:33;5.40;99.90
8332;DHT22;4203;48.144;14.118;2023-12-14T07:32:01;5.40;99.90
8332;DHT22;4203;48.144;14.118;2023-12-14T07:34:28;5.40;99.90
8332;DHT22;4203;48.144;14.118;2023-12-14T07:36:55;5.40;99.90
8332;DHT22;4203;48.144;14.118;2023-12-14T07:39:33;5.40;99.90
8332;DHT22;4203;48.144;14.118;2023-12-14T07:42:01;4.30;99.90
8332;DHT22;4203;48.144;14.118;2023-12-14T07:44:29;5.40;99.90
8332;DHT22;4203;48.144;14.118;2023-12-14T07:47:02;5.40;99.90
8332;DHT22;4203;48.144;14.118;2023-12-14T07:49:29;5.30;99.90
8332;DHT22;4203;48.144;14.118;2023-12-14T07:55:20;5.40;99.90
8332;DHT22;4203;48.144;14.118;2023-12-14T07:57:48;5.30;99.90
8332;DHT22;4203;48.144;14.118;2023-12-14T08:00:16;5.30;99.90
8332;DHT22;4203;48.144;14.118;2023-12-14T08:06:06;5.30;99.90
8332;DHT22;4203;48.144;14.118;2023-12-14T08:08:33;4.70;99.90
8332;DHT22;4203;48.144;14.118;2023-12-14T08:14:25;5.50;99.90
8332;DHT22;4203;48.144;14.118;2023-12-14T08:16:52;5.50;99.90
8332;DHT22;4203;48.144;14.118;2023-12-14T08:19:19;5.50;99.90
8332;DHT22;4203;48.144;14.118;2023-12-14T08:25:28;5.50;99.90
8332;DHT22;4203;48.144;14.118;2023-12-14T08:27:56;5.50;99.90
8332;DHT22;4203;48.144;14.118;2023-12-14T08:30:25;5.50;99.90
8332;DHT22;4203;48.144;14.118;2023-12-14T08:33:28;5.50;99.90
8332;DHT22;4203;48.144;14.118;2023-12-14T08:35:56;5.50;99.90
8332;DHT22;4203;48.144;14.118;2023-12-14T08:38:24;7.70;99.90
8332;DHT22;4203;48.144;14.118;2023-12-14T08:44:07;5.50;99.90
8332;DHT22;4203;48.144;14.118;2023-12-14T08:46:44;5.50;99.90
8332;DHT22;4203;48.144;14.118;2023-12-14T08:49:13;5.50;99.90
8332;DHT22;4203;48.144;14.118;2023-12-14T08:51:42;5.50;99.90
8332;DHT22;4203;48.144;14.118;2023-12-14T08:54:10;5.50;99.90
8332;DHT22;4203;48.144;14.118;2023-12-14T08:56:38;5.50;99.90
8332;DHT22;4203;48.144;14.118;2023-12-14T08:59:07;5.50;99.90
8332;DHT22;4203;48.144;14.118;2023-12-14T09:07:27;5.50;99.90
8332;DHT22;4203;48.144;14.118;2023-12-14T09:09:55;5.50;99.90
8332;DHT22;4203;48.144;14.118;2023-12-14T09:15:47;5.50;99.90
8332;DHT22;4203;48.144;14.118;2023-12-14T09:18:18;5.50;99.90
8332;DHT22;4203;48.144;14.118;2023-12-14T09:20:49;5.40;99.90
8332;DHT22;4203;48.144;14.118;2023-12-14T09:23:17;5.40;99.90
8332;DHT22;4203;48.144;14.118;2023-12-14T09:25:47;5.50;99.90
8332;DHT22;4203;48.144;14.118;2023-12-14T09:28:19;5.50;99.90
8332;DHT22;4203;48.144;14.118;2023-12-14T09:30:54;5.30;99.90
8332;DHT22;4203;48.144;14.118;2023-12-14T09:33:29;5.50;99.90
8332;DHT22;4203;48.144;14.118;2023-12-14T09:36:06;5.50;99.90
8332;DHT22;4203;48.144;14.118;2023-12-14T09:38:41;5.50;99.90
8332;DHT22;4203;48.144;14.118;2023-12-14T09:41:12;5.50;99.90
8332;DHT22;4203;48.144;14.118;2023-12-14T09:43:42;5.50;99.90
8332;DHT22;4203;48.144;14.118;2023-12-14T09:46:12;5.50;99.90
8332;DHT22;4203;48.144;14.118;2023-12-14T09:48:49;4.50;99.90
8332;DHT22;4203;48.144;14.118;2023-12-14T09:54:46;5.40;99.90
8332;DHT22;4203;48.144;14.118;2023-12-14T09:57:16;5.10;99.90
8332;DHT22;4203;48.144;14.118;2023-12-14T09:59:52;4.80;99.90
8332;DHT22;4203;48.144;14.118;2023-12-14T10:05:47;5.30;99.90
8332;DHT22;4203;48.144;14.118;2023-12-14T10:08:16;5.30;99.90
8332;DHT22;4203;48.144;14.118;2023-12-14T10:10:49;5.40;99.90
8332;DHT22;4203;48.144;14.118;2023-12-14T10:13:21;5.40;99.90
8332;DHT22;4203;48.144;14.118;2023-12-14T10:15:50;5.40;99.90
8332;DHT22;4203;48.144;14.118;2023-12-14T10:18:23;5.40;99.90
8332;DHT22;4203;48.144;14.118;2023-12-14T10:20:55;5.50;99.90
8332;DHT22;4203;48.144;14.118;2023-12-14T10:23:24;5.40;99.90
8332;DHT22;4203;48.144;14.118;2023-12-14T10:25:57;5.50;99.90
8332;DHT22;4203;48.144;14.118;2023-12-14T10:28:28;5.00;99.90
8332;DHT22;4203;48.144;14.118;2023-12-14T10:30:58;5.40;99.90
8332;DHT22;4203;48.144;14.118;2023-12-14T10:33:26;5.60;99.90
8332;DHT22;4203;48.144;14.118;2023-12-14T10:35:55;5.70;99.90
8332;DHT22;4203;48.144;14.118;2023-12-14T10:38:25;5.70;99.90
8332;DHT22;4203;48.144;14.118;2023-12-14T10:41:09;5.80;99.90
8332;DHT22;4203;48.144;14.118;2023-12-14T10:43:41;5.90;99.90
8332;DHT22;4203;48.144;14.118;2023-12-14T10:46:10;6.00;99.90
8332;DHT22;4203;48.144;14.118;2023-12-14T10:48:39;6.20;99.90
8332;DHT22;4203;48.144;14.118;2023-12-14T10:51:09;5.50;99.90
8332;DHT22;4203;48.144;14.118;2023-12-14T10:53:37;6.50;99.90
8332;DHT22;4203;48.144;14.118;2023-12-14T10:56:09;6.60;99.90
8332;DHT22;4203;48.144;14.118;2023-12-14T10:58:47;6.70;99.90
8332;DHT22;4203;48.144;14.118;2023-12-14T11:01:51;6.80;99.90
8332;DHT22;4203;48.144;14.118;2023-12-14T11:04:21;6.90;99.90
8332;DHT22;4203;48.144;14.118;2023-12-14T11:06:49;7.00;99.90
8332;DHT22;4203;48.144;14.118;2023-12-14T11:09:18;7.00;99.90
8332;DHT22;4203;48.144;14.118;2023-12-14T11:15:36;6.90;99.90
8332;DHT22;4203;48.144;14.118;2023-12-14T11:18:30;6.80;99.90
8332;DHT22;4203;48.144;14.118;2023-12-14T11:20:59;6.80;99.90
8332;DHT22;4203;48.144;14.118;2023-12-14T11:23:35;6.80;99.90
8332;DHT22;4203;48.144;14.118;2023-12-14T11:26:06;6.70;99.90
8332;DHT22;4203;48.144;14.118;2023-12-14T11:28:35;6.20;99.90
8332;DHT22;4203;48.144;14.118;2023-12-14T11:34:46;6.60;99.90
8332;DHT22;4203;48.144;14.118;2023-12-14T11:37:14;6.70;99.90
8332;DHT22;4203;48.144;14.118;2023-12-14T11:39:42;6.70;99.90
8332;DHT22;4203;48.144;14.118;2023-12-14T11:42:40;6.70;99.90
8332;DHT22;4203;48.144;14.118;2023-12-14T11:45:08;6.80;99.90
8332;DHT22;4203;48.144;14.118;2023-12-14T11:47:35;6.80;99.90
8332;DHT22;4203;48.144;14.118;2023-12-14T11:50:06;6.80;99.90
8332;DHT22;4203;48.144;14.118;2023-12-14T11:52:35;6.90;99.90
8332;DHT22;4203;48.144;14.118;2023-12-14T11:55:04;6.90;99.90
8332;DHT22;4203;48.144;14.118;2023-12-14T11:57:32;6.90;99.90
8332;DHT22;4203;48.144;14.118;2023-12-14T12:00:00;6.80;99.90
8332;DHT22;4203;48.144;14.118;2023-12-14T12:02:44;6.80;99.90
8332;DHT22;4203;48.144;14.118;2023-12-14T12:05:13;6.80;99.90
8332;DHT22;4203;48.144;14.118;2023-12-14T12:07:44;6.80;99.90
8332;DHT22;4203;48.144;14.118;2023-12-14T12:10:12;6.80;99.90
8332;DHT22;4203;48.144;14.118;2023-12-14T12:13:00;6.80;99.90
8332;DHT22;4203;48.144;14.118;2023-12-14T12:15:27;6.90;99.90
8332;DHT22;4203;48.144;14.118;2023-12-14T12:17:55;6.80;99.90
8332;DHT22;4203;48.144;14.118;2023-12-14T12:20:24;6.90;99.90
8332;DHT22;4203;48.144;14.118;2023-12-14T12:22:53;6.90;99.90
8332;DHT22;4203;48.144;14.118;2023-12-14T12:25:21;6.90;99.90
8332;DHT22;4203;48.144;14.118;2023-12-14T12:27:50;6.90;99.90
8332;DHT22;4203;48.144;14.118;2023-12-14T12:30:17;6.60;99.90
8332;DHT22;4203;48.144;14.118;2023-12-14T12:36:09;6.60;99.90
8332;DHT22;4203;48.144;14.118;2023-12-14T12:38:37;6.90;99.90
8332;DHT22;4203;48.144;14.118;2023-12-14T12:41:08;6.90;99.90
8332;DHT22;4203;48.144;14.118;2023-12-14T12:43:36;6.90;99.90
8332;DHT22;4203;48.144;14.118;2023-12-14T12:46:04;6.90;99.90
8332;DHT22;4203;48.144;14.118;2023-12-14T12:48:31;7.00;99.90
8332;DHT22;4203;48.144;14.118;2023-12-14T12:51:11;7.30;99.90
8332;DHT22;4203;48.144;14.118;2023-12-14T12:53:38;7.50;99.90
8332;DHT22;4203;48.144;14.118;2023-12-14T12:56:06;7.80;99.90
8332;DHT22;4203;48.144;14.118;2023-12-14T12:58:33;8.20;99.90
8332;DHT22;4203;48.144;14.118;2023-12-14T13:04:22;8.40;99.90
8332;DHT22;4203;48.144;14.118;2023-12-14T13:06:53;8.40;99.90
8332;DHT22;4203;48.144;14.118;2023-12-14T13:09:20;8.40;99.90
8332;DHT22;4203;48.144;14.118;2023-12-14T13:15:22;8.40;99.90
8332;DHT22;4203;48.144;14.118;2023-12-14T13:17:51;8.30;99.90
8332;DHT22;4203;48.144;14.118;2023-12-14T13:20:18;8.30;99.90
8332;DHT22;4203;48.144;14.118;2023-12-14T13:22:47;8.10;99.90
8332;DHT22;4203;48.144;14.118;2023-12-14T13:25:15;8.10;99.90
8332;DHT22;4203;48.144;14.118;2023-12-14T13:27:42;8.10;99.90
8332;DHT22;4203;48.144;14.118;2023-12-14T13:30:10;8.20;99.90
8332;DHT22;4203;48.144;14.118;2023-12-14T13:32:39;8.20;99.90
8332;DHT22;4203;48.144;14.118;2023-12-14T13:35:07;8.10;99.90
8332;DHT22;4203;48.144;14.118;2023-12-14T13:37:34;8.00;99.90
8332;DHT22;4203;48.144;14.118;2023-12-14T13:40:04;7.90;99.90
8332;DHT22;4203;48.144;14.118;2023-12-14T13:42:41;7.80;99.90
8332;DHT22;4203;48.144;14.118;2023-12-14T13:45:09;7.70;99.90
8332;DHT22;4203;48.144;14.118;2023-12-14T13:47:36;7.70;99.90
8332;DHT22;4203;48.144;14.118;2023-12-14T13:50:04;7.60;99.90
8332;DHT22;4203;48.144;14.118;2023-12-14T13:52:31;7.50;99.90
8332;DHT22;4203;48.144;14.118;2023-12-14T13:54:59;7.50;99.90
8332;DHT22;4203;48.144;14.118;2023-12-14T13:57:28;7.40;99.90
8332;DHT22;4203;48.144;14.118;2023-12-14T13:59:55;7.50;99.90
8332;DHT22;4203;48.144;14.118;2023-12-14T14:02:23;7.40;99.90
8332;DHT22;4203;48.144;14.118;2023-12-14T14:04:53;7.50;99.90
8332;DHT22;4203;48.144;14.118;2023-12-14T14:07:20;7.50;99.90
8332;DHT22;4203;48.144;14.118;2023-12-14T14:09:48;7.50;99.90
8332;DHT22;4203;48.144;14.118;2023-12-14T14:12:16;7.50;99.90
8332;DHT22;4203;48.144;14.118;2023-12-14T14:14:45;7.50;99.90
8332;DHT22;4203;48.144;14.118;2023-12-14T14:17:12;7.50;99.90
8332;DHT22;4203;48.144;14.118;2023-12-14T14:19:46;7.50;99.90
8332;DHT22;4203;48.144;14.118;2023-12-14T14:22:15;7.40;99.90
8332;DHT22;4203;48.144;14.118;2023-12-14T14:24:42;7.30;99.90
8332;DHT22;4203;48.144;14.118;2023-12-14T14:27:10;7.20;99.90
8332;DHT22;4203;48.144;14.118;2023-12-14T14:29:37;7.10;99.90
8332;DHT22;4203;48.144;14.118;2023-12-14T14:32:08;7.00;99.90
8332;DHT22;4203;48.144;14.118;2023-12-14T14:34:35;7.00;99.90
8332;DHT22;4203;48.144;14.118;2023-12-14T14:37:03;6.90;99.90
8332;DHT22;4203;48.144;14.118;2023-12-14T14:39:34;6.90;99.90
8332;DHT22;4203;48.144;14.118;2023-12-14T14:42:09;6.80;99.90
8332;DHT22;4203;48.144;14.118;2023-12-14T14:44:40;6.60;99.90
8332;DHT22;4203;48.144;14.118;2023-12-14T14:47:12;6.60;99.90
8332;DHT22;4203;48.144;14.118;2023-12-14T14:49:43;6.60;99.90
8332;DHT22;4203;48.144;14.118;2023-12-14T14:52:22;6.50;99.90
8332;DHT22;4203;48.144;14.118;2023-12-14T14:54:57;6.10;99.90
8332;DHT22;4203;48.144;14.118;2023-12-14T14:57:28;6.40;99.90
8332;DHT22;4203;48.144;14.118;2023-12-14T14:59:56;6.30;99.90
8332;DHT22;4203;48.144;14.118;2023-12-14T15:02:26;6.30;99.90
8332;DHT22;4203;48.144;14.118;2023-12-14T15:04:53;6.30;99.90
8332;DHT22;4203;48.144;14.118;2023-12-14T15:07:21;6.30;99.90
8332;DHT22;4203;48.144;14.118;2023-12-14T15:09:48;6.20;99.90
8332;DHT22;4203;48.144;14.118;2023-12-14T15:12:15;6.20;99.90
8332;DHT22;4203;48.144;14.118;2023-12-14T15:14:46;6.20;99.90
8332;DHT22;4203;48.144;14.118;2023-12-14T15:17:14;6.20;99.90
8332;DHT22;4203;48.144;14.118;2023-12-14T15:19:46;6.20;99.90
8332;DHT22;4203;48.144;14.118;2023-12-14T15:22:13;6.20;99.90
8332;DHT22;4203;48.144;14.118;2023-12-14T15:24:40;6.20;99.90
8332;DHT22;4203;48.144;14.118;2023-12-14T15:27:08;6.10;99.90
8332;DHT22;4203;48.144;14.118;2023-12-14T15:29:35;6.00;99.90
8332;DHT22;4203;48.144;14.118;2023-12-14T15:44:38;5.90;99.90
8332;DHT22;4203;48.144;14.118;2023-12-14T15:47:05;5.80;99.90
8332;DHT22;4203;48.144;14.118;2023-12-14T15:49:33;5.70;99.90
8332;DHT22;4203;48.144;14.118;2023-12-14T15:55:25;5.70;99.90
8332;DHT22;4203;48.144;14.118;2023-12-14T15:57:52;5.60;99.90
8332;DHT22;4203;48.144;14.118;2023-12-14T16:00:20;5.70;99.90
8332;DHT22;4203;48.144;14.118;2023-12-14T16:06:11;5.50;99.90
8332;DHT22;4203;48.144;14.118;2023-12-14T16:08:38;5.50;99.90
8332;DHT22;4203;48.144;14.118;2023-12-14T16:11:10;5.60;99.90
8332;DHT22;4203;48.144;14.118;2023-12-14T16:13:39;5.60;99.90
8332;DHT22;4203;48.144;14.118;2023-12-14T16:16:07;5.50;99.90
8332;DHT22;4203;48.144;14.118;2023-12-14T16:18:35;5.50;99.90
8332;DHT22;4203;48.144;14.118;2023-12-14T16:24:24;5.50;99.90
8332;DHT22;4203;48.144;14.118;2023-12-14T16:26:53;5.40;99.90
8332;DHT22;4203;48.144;14.118;2023-12-14T16:29:21;5.40;99.90
8332;DHT22;4203;48.144;14.118;2023-12-14T16:35:01;5.40;99.90
8332;DHT22;4203;48.144;14.118;2023-12-14T16:37:41;5.40;99.90
8332;DHT22;4203;48.144;14.118;2023-12-14T16:40:17;5.10;99.90
8332;DHT22;4203;48.144;14.118;2023-12-14T16:42:57;5.40;99.90
8332;DHT22;4203;48.144;14.118;2023-12-14T16:45:28;5.40;99.90
8332;DHT22;4203;48.144;14.118;2023-12-14T16:47:58;5.40;99.90
8332;DHT22;4203;48.144;14.118;2023-12-14T16:50:30;5.00;99.90
8332;DHT22;4203;48.144;14.118;2023-12-14T16:56:19;5.50;99.90
8332;DHT22;4203;48.144;14.118;2023-12-14T16:58:56;5.50;99.90
8332;DHT22;4203;48.144;14.118;2023-12-14T17:01:23;5.50;99.90
8332;DHT22;4203;48.144;14.118;2023-12-14T17:03:51;5.50;99.90
8332;DHT22;4203;48.144;14.118;2023-12-14T17:06:19;5.50;99.90
8332;DHT22;4203;48.144;14.118;2023-12-14T17:08:46;5.60;99.90
8332;DHT22;4203;48.144;14.118;2023-12-14T17:11:14;5.60;99.90
8332;DHT22;4203;48.144;14.118;2023-12-14T17:13:41;5.70;99.90
8332;DHT22;4203;48.144;14.118;2023-12-14T17:16:14;5.70;99.90
8332;DHT22;4203;48.144;14.118;2023-12-14T17:18:41;5.70;99.90
8332;DHT22;4203;48.144;14.118;2023-12-14T17:21:16;5.70;99.90
8332;DHT22;4203;48.144;14.118;2023-12-14T17:23:44;5.60;99.90
8332;DHT22;4203;48.144;14.118;2023-12-14T17:26:12;5.60;99.90
8332;DHT22;4203;48.144;14.118;2023-12-14T17:28:43;5.70;99.90
8332;DHT22;4203;48.144;14.118;2023-12-14T17:31:11;5.70;99.90
8332;DHT22;4203;48.144;14.118;2023-12-14T17:33:42;5.80;99.90
8332;DHT22;4203;48.144;14.118;2023-12-14T17:36:10;5.80;99.90
8332;DHT22;4203;48.144;14.118;2023-12-14T17:38:37;5.70;99.90
8332;DHT22;4203;48.144;14.118;2023-12-14T17:41:07;5.70;99.90
8332;DHT22;4203;48.144;14.118;2023-12-14T17:43:36;5.70;99.90
8332;DHT22;4203;48.144;14.118;2023-12-14T17:46:04;5.60;99.90
8332;DHT22;4203;48.144;14.118;2023-12-14T17:48:32;5.60;99.90
8332;DHT22;4203;48.144;14.118;2023-12-14T17:51:01;5.60;99.90
8332;DHT22;4203;48.144;14.118;2023-12-14T17:53:29;5.60;99.90
8332;DHT22;4203;48.144;14.118;2023-12-14T17:55:56;5.50;99.90
8332;DHT22;4203;48.144;14.118;2023-12-14T17:58:24;5.50;99.90
8332;DHT22;4203;48.144;14.118;2023-12-14T18:00:54;5.50;99.90
8332;DHT22;4203;48.144;14.118;2023-12-14T18:03:21;5.50;99.90
8332;DHT22;4203;48.144;14.118;2023-12-14T18:05:49;5.50;99.90
8332;DHT22;4203;48.144;14.118;2023-12-14T18:08:17;5.50;99.90
8332;DHT22;4203;48.144;14.118;2023-12-14T18:10:46;5.50;99.90
8332;DHT22;4203;48.144;14.118;2023-12-14T18:13:13;5.50;99.90
8332;DHT22;4203;48.144;14.118;2023-12-14T18:15:43;5.50;99.90
8332;DHT22;4203;48.144;14.118;2023-12-14T18:18:10;5.50;99.90
8332;DHT22;4203;48.144;14.118;2023-12-14T18:20:37;5.50;99.90
8332;DHT22;4203;48.144;14.118;2023-12-14T18:26:28;5.50;99.90
8332;DHT22;4203;48.144;14.118;2023-12-14T18:28:56;5.40;99.90
8332;DHT22;4203;48.144;14.118;2023-12-14T18:35:05;5.40;99.90
8332;DHT22;4203;48.144;14.118;2023-12-14T18:37:36;5.00;99.90
8332;DHT22;4203;48.144;14.118;2023-12-14T18:40:07;5.40;99.90
8332;DHT22;4203;48.144;14.118;2023-12-14T18:45:57;5.40;99.90
8332;DHT22;4203;48.144;14.118;2023-12-14T18:48:24;5.40;99.90
8332;DHT22;4203;48.144;14.118;2023-12-14T18:50:52;5.40;99.90
8332;DHT22;4203;48.144;14.118;2023-12-14T18:53:21;5.40;99.90
8332;DHT22;4203;48.144;14.118;2023-12-14T18:55:48;5.40;99.90
8332;DHT22;4203;48.144;14.118;2023-12-14T18:58:16;5.40;99.90
8332;DHT22;4203;48.144;14.118;2023-12-14T19:00:47;5.40;99.90
8332;DHT22;4203;48.144;14.118;2023-12-14T19:03:17;5.30;99.90
8332;DHT22;4203;48.144;14.118;2023-12-14T19:05:45;5.40;99.90
8332;DHT22;4203;48.144;14.118;2023-12-14T19:08:20;5.50;99.90
8332;DHT22;4203;48.144;14.118;2023-12-14T19:10:48;5.50;99.90
8332;DHT22;4203;48.144;14.118;2023-12-14T19:13:20;5.40;99.90
8332;DHT22;4203;48.144;14.118;2023-12-14T19:15:50;5.40;99.90
8332;DHT22;4203;48.144;14.118;2023-12-14T19:18:21;5.40;99.90
8332;DHT22;4203;48.144;14.118;2023-12-14T19:20:53;5.40;99.90
8332;DHT22;4203;48.144;14.118;2023-12-14T19:23:25;5.40;99.90
8332;DHT22;4203;48.144;14.118;2023-12-14T19:26:06;5.10;99.90
8332;DHT22;4203;48.144;14.118;2023-12-14T19:28:46;5.40;99.90
8332;DHT22;4203;48.144;14.118;2023-12-14T19:31:48;5.40;99.90
8332;DHT22;4203;48.144;14.118;2023-12-14T19:34:18;5.30;99.90
8332;DHT22;4203;48.144;14.118;2023-12-14T19:36:47;5.30;99.90
8332;DHT22;4203;48.144;14.118;2023-12-14T19:39:15;5.30;99.90
8332;DHT22;4203;48.144;14.118;2023-12-14T19:41:44;5.20;99.90
8332;DHT22;4203;48.144;14.118;2023-12-14T19:44:14;5.20;99.90
8332;DHT22;4203;48.144;14.118;2023-12-14T19:46:42;5.20;99.90
8332;DHT22;4203;48.144;14.118;2023-12-14T19:49:10;5.20;99.90
8332;DHT22;4203;48.144;14.118;2023-12-14T19:51:40;5.20;99.90
8332;DHT22;4203;48.144;14.118;2023-12-14T19:54:07;5.20;99.90